Time;durP1;ratioP1;P1;durP2;ratioP2;P2;SDS_P1;SDS_P2;PMS_P1;PMS_P2;Temp;Humidity;BMP_temperature;BMP_pressure;BME280_temperature;BME280_humidity;BME280_pressure;Samples;Min_cycle;Max_cycle;Signal;HPM_P1;HPM_P2
2023/01/27 00:00:21;;;;;;;39.70;18.27;;;2.20;99.90;;;;;;4995060;28;20208;-66
2023/01/27 00:02:47;;;;;;;37.40;19.27;;;2.20;99.90;;;;;;4994639;28;20176;-66
2023/01/27 00:05:15;;;;;;;32.97;15.03;;;2.20;99.90;;;;;;4994585;28;20196;-66
2023/01/27 00:07:44;;;;;;;23.87;15.43;;;2.20;99.90;;;;;;4994459;28;20231;-66
2023/01/27 00:10:12;;;;;;;27.57;15.80;;;2.20;99.90;;;;;;5009514;28;20204;-66
2023/01/27 00:15:22;;;;;;;22.10;14.50;;;2.20;99.90;;;;;;4994592;28;20254;-65
2023/01/27 00:17:48;;;;;;;22.73;14.47;;;2.20;99.90;;;;;;4994631;28;20590;-65
2023/01/27 00:24:34;;;;;;;25.03;14.47;;;2.20;99.90;;;;;;4994295;28;20172;-65
2023/01/27 00:25:49;;;;;;;30.97;15.00;;;2.20;99.90;;;;;;4994236;28;20254;-65
2023/01/27 00:28:22;;;;;;;34.93;15.43;;;2.20;99.90;;;;;;4994459;28;20621;-65
2023/01/27 00:30:51;;;;;;;29.87;13.83;;;2.20;99.90;;;;;;5009183;28;20197;-65
2023/01/27 00:33:26;;;;;;;26.97;14.93;;;2.20;99.90;;;;;;4994445;28;20520;-65
2023/01/27 00:36:00;;;;;;;45.87;17.40;;;2.20;99.90;;;;;;4993969;28;20188;-65
2023/01/27 00:38:31;;;;;;;36.13;16.63;;;2.20;99.90;;;;;;4994053;28;20622;-65
2023/01/27 00:41:18;;;;;;;29.57;14.73;;;2.20;99.90;;;;;;4994055;28;20234;-65
2023/01/27 00:43:49;;;;;;;33.27;16.30;;;2.20;99.90;;;;;;4992897;28;20307;-65
2023/01/27 00:46:15;;;;;;;27.00;14.90;;;2.20;99.90;;;;;;4994044;28;20228;-65
2023/01/27 00:48:41;;;;;;;36.33;18.53;;;2.30;99.90;;;;;;4994107;28;20188;-66
2023/01/27 00:51:08;;;;;;;39.70;17.83;;;2.30;99.90;;;;;;4993075;28;20295;-65
2023/01/27 00:53:33;;;;;;;37.60;19.60;;;2.30;99.90;;;;;;4995574;28;20200;-65
2023/01/27 00:55:59;;;;;;;46.20;22.10;;;2.30;99.90;;;;;;4995779;28;20216;-65
2023/01/27 00:58:26;;;;;;;36.07;19.97;;;2.30;99.90;;;;;;5010358;28;20234;-65
2023/01/27 01:00:53;;;;;;;42.13;21.33;;;2.30;99.90;;;;;;4994410;28;20672;-65
2023/01/27 01:03:19;;;;;;;42.70;22.67;;;2.30;99.90;;;;;;4994315;28;20176;-65
2023/01/27 01:05:44;;;;;;;45.97;21.60;;;2.30;99.90;;;;;;4994051;28;20207;-65
2023/01/27 01:08:10;;;;;;;41.70;21.53;;;2.30;99.90;;;;;;4993869;28;20176;-65
2023/01/27 01:10:38;;;;;;;45.73;22.40;;;2.20;99.90;;;;;;4992472;28;20230;-65
2023/01/27 01:13:06;;;;;;;41.30;21.27;;;2.20;99.90;;;;;;4993729;28;20256;-65
2023/01/27 01:15:35;;;;;;;42.03;20.57;;;2.20;99.90;;;;;;5008704;28;20204;-65
2023/01/27 01:18:02;;;;;;;38.00;20.13;;;2.20;99.90;;;;;;4993700;28;20583;-65
2023/01/27 01:20:28;;;;;;;36.43;19.07;;;2.20;99.90;;;;;;4993658;28;20231;-65
2023/01/27 01:22:54;;;;;;;40.27;20.80;;;2.20;99.90;;;;;;5008728;28;20185;-65
2023/01/27 01:25:20;;;;;;;39.80;18.93;;;2.20;99.90;;;;;;5008757;28;20731;-65
2023/01/27 01:27:45;;;;;;;33.97;19.10;;;2.20;99.90;;;;;;4992263;28;20212;-65
2023/01/27 01:30:12;;;;;;;37.47;18.87;;;2.10;99.90;;;;;;4993571;28;20215;-65
2023/01/27 01:32:37;;;;;;;37.70;18.80;;;2.10;99.90;;;;;;4994193;28;20173;-65
2023/01/27 01:35:03;;;;;;;31.97;18.10;;;2.10;99.90;;;;;;5008521;28;20197;-65
2023/01/27 01:37:29;;;;;;;33.27;18.50;;;2.10;99.90;;;;;;4993659;28;20200;-65
2023/01/27 01:39:55;;;;;;;35.70;18.93;;;2.10;99.90;;;;;;4993584;28;20207;-65
2023/01/27 01:42:20;;;;;;;32.90;17.07;;;2.10;99.90;;;;;;4993499;28;20183;-65
2023/01/27 01:44:46;;;;;;;33.53;17.20;;;2.10;99.90;;;;;;4993437;28;20204;-65
2023/01/27 01:47:16;;;;;;;30.73;17.03;;;2.10;99.90;;;;;;4995809;28;20185;-65
2023/01/27 01:49:44;;;;;;;33.53;17.10;;;2.10;99.90;;;;;;5012102;28;20254;-65
2023/01/27 01:52:14;;;;;;;31.57;18.10;;;2.10;99.90;;;;;;4997156;28;20169;-65
2023/01/27 01:54:49;;;;;;;43.03;19.83;;;2.10;99.90;;;;;;4997073;28;20199;-65
2023/01/27 01:57:21;;;;;;;39.00;18.63;;;2.10;99.90;;;;;;4996996;28;20161;-65
2023/01/27 01:59:53;;;;;;;40.80;19.67;;;2.10;99.90;;;;;;4997167;28;20598;-65
2023/01/27 02:02:22;;;;;;;40.87;19.50;;;2.00;99.90;;;;;;4996826;28;20647;-65
2023/01/27 02:05:03;;;;;;;39.70;21.13;;;2.00;99.90;;;;;;5011747;28;20189;-65
2023/01/27 02:08:08;;;;;;;42.20;21.10;;;2.00;99.90;;;;;;4996953;28;20255;-65
2023/01/27 02:10:34;;;;;;;42.00;20.17;;;2.10;99.90;;;;;;4957396;28;20239;-65
2023/01/27 02:13:00;;;;;;;47.37;20.63;;;2.00;99.90;;;;;;4996693;28;20176;-65
2023/01/27 02:15:27;;;;;;;48.60;21.07;;;2.00;99.90;;;;;;4996964;28;20274;-65
2023/01/27 02:17:53;;;;;;;43.63;20.90;;;2.00;99.90;;;;;;4995222;28;20233;-65
2023/01/27 02:20:37;;;;;;;40.40;19.63;;;2.00;99.90;;;;;;5011522;28;20665;-65
2023/01/27 02:23:02;;;;;;;45.40;19.80;;;2.00;99.90;;;;;;4995134;28;20193;-65
2023/01/27 02:25:34;;;;;;;50.43;21.80;;;2.00;99.90;;;;;;4995126;28;20201;-65
2023/01/27 02:28:01;;;;;;;35.37;19.33;;;2.10;99.90;;;;;;4996319;28;20621;-65
2023/01/27 02:30:27;;;;;;;41.83;20.73;;;2.00;99.90;;;;;;5011307;28;20211;-65
2023/01/27 02:32:53;;;;;;;41.63;19.57;;;2.00;99.90;;;;;;5011288;28;20176;-65
2023/01/27 02:35:32;;;;;;;37.17;18.00;;;2.00;99.90;;;;;;4996141;28;20251;-65
2023/01/27 02:37:59;;;;;;;40.73;17.57;;;2.00;99.90;;;;;;4996162;28;20411;-65
2023/01/27 02:40:26;;;;;;;38.97;18.67;;;2.00;99.90;;;;;;4996088;28;20319;-65
2023/01/27 02:42:55;;;;;;;35.77;18.37;;;2.10;99.90;;;;;;4996117;28;20177;-65
2023/01/27 02:45:21;;;;;;;33.73;17.73;;;2.10;99.90;;;;;;4995751;28;20251;-65
2023/01/27 02:47:47;;;;;;;42.07;19.33;;;2.10;99.90;;;;;;4995993;28;20275;-65
2023/01/27 02:50:12;;;;;;;40.17;19.43;;;2.10;99.90;;;;;;4996375;28;20673;-65
2023/01/27 02:52:38;;;;;;;35.93;18.63;;;2.10;99.90;;;;;;5010813;28;20195;-65
2023/01/27 02:55:04;;;;;;;35.90;18.23;;;2.10;99.90;;;;;;4994481;28;20283;-65
2023/01/27 02:57:30;;;;;;;37.80;19.13;;;2.10;99.90;;;;;;4994747;28;20630;-65
2023/01/27 02:59:56;;;;;;;42.40;19.10;;;2.10;99.90;;;;;;4995670;28;20191;-65
2023/01/27 03:02:29;;;;;;;39.07;20.80;;;2.10;99.90;;;;;;4995704;28;20267;-65
2023/01/27 03:04:55;;;;;;;45.40;21.17;;;2.10;99.90;;;;;;4995885;28;20208;-65
2023/01/27 03:07:21;;;;;;;45.83;20.20;;;2.10;99.90;;;;;;4995659;28;20230;-65
2023/01/27 03:09:47;;;;;;;41.27;20.00;;;2.00;99.90;;;;;;4995614;28;20231;-65
2023/01/27 03:12:19;;;;;;;44.67;20.13;;;2.10;99.90;;;;;;4995477;28;20183;-65
2023/01/27 03:20:14;;;;;;;43.60;20.03;;;2.00;99.90;;;;;;4976327;28;20204;-65
2023/01/27 03:22:39;;;;;;;45.83;19.60;;;2.10;99.90;;;;;;4975874;28;20192;-65
2023/01/27 03:25:05;;;;;;;40.43;19.50;;;2.10;99.90;;;;;;4975769;28;20205;-65
2023/01/27 03:27:31;;;;;;;37.37;19.93;;;2.10;99.90;;;;;;4976352;28;20181;-65
2023/01/27 03:29:57;;;;;;;38.37;18.40;;;2.10;99.90;;;;;;4974335;28;20216;-65
2023/01/27 03:32:25;;;;;;;35.07;17.53;;;2.10;99.90;;;;;;4975713;28;20177;-65
2023/01/27 03:34:51;;;;;;;34.07;17.70;;;2.10;99.90;;;;;;4975940;28;20173;-65
2023/01/27 03:48:13;;;;;;;28.13;17.57;;;2.10;99.90;;;;;;4995459;28;20179;-66
2023/01/27 03:50:42;;;;;;;35.47;17.43;;;2.00;99.90;;;;;;4994631;28;20236;-66
2023/01/27 03:53:09;;;;;;;30.77;16.77;;;2.10;99.90;;;;;;4994856;28;20741;-66
2023/01/27 03:55:36;;;;;;;33.87;16.20;;;2.10;99.90;;;;;;4994661;28;20279;-67
2023/01/27 03:58:17;;;;;;;32.67;17.30;;;2.10;99.90;;;;;;4994976;28;20180;-66
2023/01/27 04:00:44;;;;;;;35.83;17.43;;;2.10;99.90;;;;;;4994783;28;20620;-67
2023/01/27 04:08:41;;;;;;;35.27;16.80;;;2.10;99.90;;;;;;4994267;28;20176;-67
2023/01/27 04:13:50;;;;;;;35.20;16.97;;;2.10;99.90;;;;;;4994827;28;20164;-66
2023/01/27 04:16:18;;;;;;;34.23;17.00;;;2.20;99.90;;;;;;5009244;28;20669;-66
2023/01/27 04:18:45;;;;;;;33.23;17.43;;;2.20;99.90;;;;;;5009458;28;20772;-66
2023/01/27 04:21:12;;;;;;;39.87;18.23;;;2.20;99.90;;;;;;4993074;28;20184;-66
2023/01/27 04:23:38;;;;;;;38.90;16.83;;;2.20;99.90;;;;;;4994321;28;20165;-66
2023/01/27 04:26:04;;;;;;;39.80;17.93;;;2.20;99.90;;;;;;4994163;28;20551;-67
2023/01/27 04:28:29;;;;;;;37.80;18.93;;;2.20;99.90;;;;;;4994650;28;20251;-66
2023/01/27 04:30:57;;;;;;;34.47;18.17;;;2.20;99.90;;;;;;4994273;28;20572;-66
2023/01/27 04:33:23;;;;;;;38.27;19.00;;;2.20;99.90;;;;;;4994298;28;20177;-66
2023/01/27 04:35:49;;;;;;;37.10;18.30;;;2.20;99.90;;;;;;4994242;28;20680;-67
2023/01/27 04:38:15;;;;;;;38.53;18.50;;;2.20;99.90;;;;;;4994205;28;20169;-66
2023/01/27 04:40:42;;;;;;;29.60;18.10;;;2.20;99.90;;;;;;4993980;28;20243;-66
2023/01/27 04:43:07;;;;;;;33.83;18.83;;;2.20;99.90;;;;;;5009258;28;20180;-66
2023/01/27 04:45:33;;;;;;;29.50;17.60;;;2.20;99.90;;;;;;4993723;28;20723;-67
2023/01/27 04:47:59;;;;;;;37.40;18.00;;;2.20;99.90;;;;;;4994015;28;20227;-67
2023/01/27 04:50:25;;;;;;;33.90;17.80;;;2.20;99.90;;;;;;4994146;28;20200;-66
2023/01/27 04:52:50;;;;;;;39.17;19.57;;;2.20;99.90;;;;;;4993870;28;20200;-66
2023/01/27 04:55:16;;;;;;;35.03;17.70;;;2.30;99.90;;;;;;4993912;28;20196;-67
2023/01/27 04:57:42;;;;;;;34.53;17.83;;;2.20;99.90;;;;;;4992644;28;20267;-66
2023/01/27 05:00:09;;;;;;;31.30;18.60;;;2.20;99.90;;;;;;4993902;28;20199;-66
2023/01/27 05:02:35;;;;;;;29.23;17.73;;;2.20;99.90;;;;;;4993814;28;20658;-66
2023/01/27 05:05:03;;;;;;;32.87;18.47;;;2.30;99.90;;;;;;4993720;28;20284;-66
2023/01/27 05:07:29;;;;;;;28.60;17.67;;;2.30;99.90;;;;;;4992531;28;20259;-66
2023/01/27 05:09:55;;;;;;;33.80;17.43;;;2.30;99.90;;;;;;4993743;28;20669;-66
2023/01/27 05:12:21;;;;;;;35.60;17.93;;;2.30;99.90;;;;;;4993828;28;20161;-66
2023/01/27 05:14:47;;;;;;;27.43;16.93;;;2.30;99.90;;;;;;4993795;28;20651;-67
2023/01/27 05:17:12;;;;;;;30.43;17.33;;;2.30;99.90;;;;;;4993789;28;20229;-67
2023/01/27 05:19:38;;;;;;;35.30;17.80;;;2.30;99.90;;;;;;4993719;28;20555;-67
2023/01/27 05:22:04;;;;;;;25.80;16.40;;;2.30;99.90;;;;;;5011308;28;20203;-67
2023/01/27 05:24:30;;;;;;;29.67;17.57;;;2.30;99.90;;;;;;4997928;28;20214;-68
2023/01/27 05:26:56;;;;;;;34.93;17.43;;;2.30;99.90;;;;;;4996460;28;20197;-67
2023/01/27 05:29:22;;;;;;;26.47;16.23;;;2.40;99.90;;;;;;4997530;28;20235;-67
2023/01/27 05:31:48;;;;;;;36.37;18.33;;;2.40;99.90;;;;;;4997950;28;20263;-65
2023/01/27 05:34:15;;;;;;;30.00;17.93;;;2.40;99.90;;;;;;4997324;28;20172;-65
2023/01/27 05:36:41;;;;;;;32.20;18.27;;;2.40;99.90;;;;;;4997299;28;20216;-65
2023/01/27 05:39:10;;;;;;;30.77;16.83;;;2.40;99.90;;;;;;4995971;28;20179;-65
2023/01/27 05:41:36;;;;;;;26.40;16.53;;;2.40;99.90;;;;;;4997061;28;20180;-65
2023/01/27 05:44:02;;;;;;;30.83;17.20;;;2.40;99.90;;;;;;4996907;28;20184;-65
2023/01/27 05:46:30;;;;;;;35.47;18.83;;;2.40;99.90;;;;;;4996889;28;20216;-65
2023/01/27 05:48:59;;;;;;;36.03;19.17;;;2.40;99.90;;;;;;4997202;28;20221;-65
2023/01/27 05:51:28;;;;;;;30.87;17.83;;;2.40;99.90;;;;;;4995571;28;20212;-65
2023/01/27 05:53:54;;;;;;;26.10;16.53;;;2.40;99.90;;;;;;4996872;28;20204;-64
2023/01/27 05:56:21;;;;;;;28.67;17.27;;;2.40;99.90;;;;;;4995491;28;20207;-64
2023/01/27 05:58:47;;;;;;;33.27;17.23;;;2.40;99.90;;;;;;4997086;28;20248;-64
2023/01/27 06:01:20;;;;;;;30.30;16.90;;;2.40;99.90;;;;;;4996757;28;20172;-64
2023/01/27 06:03:47;;;;;;;27.77;16.97;;;2.40;99.90;;;;;;5011877;28;20559;-64
2023/01/27 06:06:15;;;;;;;27.97;17.73;;;2.40;99.90;;;;;;4996611;28;20200;-64
2023/01/27 06:08:41;;;;;;;27.23;17.10;;;2.40;99.90;;;;;;5011649;28;20216;-65
2023/01/27 06:11:07;;;;;;;30.23;16.57;;;2.40;99.90;;;;;;4996824;28;20206;-65
2023/01/27 06:13:34;;;;;;;27.90;16.53;;;2.40;99.90;;;;;;4996576;28;20180;-65
2023/01/27 06:16:06;;;;;;;27.40;15.80;;;2.40;99.90;;;;;;4996505;28;20576;-65
2023/01/27 06:18:32;;;;;;;28.67;16.37;;;2.40;99.90;;;;;;4996893;28;20153;-64
2023/01/27 06:20:59;;;;;;;28.33;16.57;;;2.40;99.90;;;;;;5011598;28;20267;-64
2023/01/27 06:23:26;;;;;;;26.17;16.17;;;2.40;99.90;;;;;;4996375;28;20641;-65
2023/01/27 06:25:53;;;;;;;25.47;15.60;;;2.50;99.90;;;;;;5011382;28;20258;-64
2023/01/27 06:28:19;;;;;;;23.00;15.67;;;2.50;99.90;;;;;;4996245;28;20180;-65
2023/01/27 06:30:44;;;;;;;30.17;16.67;;;2.50;99.90;;;;;;4996184;28;20200;-65
2023/01/27 06:33:10;;;;;;;25.60;16.23;;;2.50;99.90;;;;;;4996145;28;20172;-65
2023/01/27 06:35:38;;;;;;;27.40;16.77;;;2.50;99.90;;;;;;5011190;28;20201;-65
2023/01/27 06:38:07;;;;;;;27.40;16.60;;;2.50;99.90;;;;;;4995972;28;20176;-65
2023/01/27 06:40:34;;;;;;;24.53;16.60;;;2.50;99.90;;;;;;4996083;28;20188;-65
2023/01/27 06:43:00;;;;;;;24.47;15.90;;;2.50;99.90;;;;;;4996037;28;20183;-65
2023/01/27 06:45:27;;;;;;;31.23;16.77;;;2.50;99.90;;;;;;5010720;28;20601;-65
2023/01/27 06:47:55;;;;;;;23.80;15.57;;;2.50;99.90;;;;;;4996046;28;20661;-64
2023/01/27 06:50:21;;;;;;;28.50;16.50;;;2.50;99.90;;;;;;5011058;28;20223;-65
2023/01/27 06:52:46;;;;;;;27.37;16.13;;;2.50;99.90;;;;;;4996245;28;20165;-64
2023/01/27 06:55:12;;;;;;;26.63;15.20;;;2.50;99.90;;;;;;5011416;28;20677;-64
2023/01/27 06:57:38;;;;;;;21.73;15.07;;;2.50;99.90;;;;;;4995998;28;20176;-65
2023/01/27 07:00:04;;;;;;;23.77;15.30;;;2.50;99.90;;;;;;4994764;28;20180;-64
2023/01/27 07:02:30;;;;;;;26.33;16.90;;;2.50;99.90;;;;;;4994585;28;20181;-64
2023/01/27 07:04:56;;;;;;;27.67;16.83;;;2.50;99.90;;;;;;4995633;28;20694;-64
2023/01/27 07:07:22;;;;;;;29.73;17.90;;;2.50;99.90;;;;;;4995559;28;20173;-64
2023/01/27 07:09:47;;;;;;;30.17;16.87;;;2.50;99.90;;;;;;4995582;28;20204;-65
2023/01/27 07:12:13;;;;;;;28.53;17.77;;;2.60;99.90;;;;;;4995497;28;20637;-65
2023/01/27 07:14:39;;;;;;;30.20;18.10;;;2.60;99.90;;;;;;4995426;28;20637;-65
2023/01/27 07:17:04;;;;;;;31.03;17.07;;;2.50;99.90;;;;;;4995327;28;20185;-65
2023/01/27 07:19:30;;;;;;;29.93;17.07;;;2.60;99.90;;;;;;4995644;28;20223;-65
2023/01/27 07:21:56;;;;;;;25.17;17.73;;;2.60;99.90;;;;;;4995342;28;20181;-65
2023/01/27 07:24:21;;;;;;;25.13;16.87;;;2.60;99.90;;;;;;4994030;28;20529;-65
2023/01/27 07:26:47;;;;;;;26.50;16.13;;;2.60;99.90;;;;;;4993825;28;20615;-64
2023/01/27 07:29:13;;;;;;;27.40;16.10;;;2.60;99.90;;;;;;5010343;28;20187;-64
2023/01/27 07:31:39;;;;;;;25.90;15.17;;;2.60;99.90;;;;;;4995018;28;20619;-64
2023/01/27 07:34:05;;;;;;;21.63;14.67;;;2.60;99.90;;;;;;4993806;28;20259;-65
2023/01/27 07:36:30;;;;;;;21.03;14.80;;;2.60;99.90;;;;;;4993684;28;20568;-64
2023/01/27 07:38:56;;;;;;;21.83;14.87;;;2.60;99.90;;;;;;4994929;28;20571;-64
2023/01/27 07:41:23;;;;;;;25.93;15.80;;;2.70;99.90;;;;;;4995165;28;20172;-65
2023/01/27 07:43:49;;;;;;;23.67;15.57;;;2.70;99.90;;;;;;4994191;28;20673;-64
2023/01/27 07:46:15;;;;;;;21.60;15.10;;;2.70;99.90;;;;;;5009703;28;20224;-64
2023/01/27 07:48:40;;;;;;;23.37;16.07;;;2.70;99.90;;;;;;4993590;28;20602;-65
2023/01/27 07:51:12;;;;;;;20.73;15.33;;;2.70;99.90;;;;;;4993450;28;20204;-65
2023/01/27 07:53:37;;;;;;;23.00;15.57;;;2.70;99.90;;;;;;4994762;28;20640;-65
2023/01/27 07:56:03;;;;;;;21.27;14.20;;;2.70;99.90;;;;;;4994634;28;20189;-65
2023/01/27 07:58:29;;;;;;;22.90;14.37;;;2.70;99.90;;;;;;4993396;28;20237;-65
2023/01/27 08:00:55;;;;;;;22.07;15.77;;;2.70;99.90;;;;;;4994850;28;20607;-64
2023/01/27 08:03:24;;;;;;;23.00;14.77;;;2.70;99.90;;;;;;4994521;28;20208;-64
2023/01/27 08:05:50;;;;;;;22.87;14.53;;;2.70;99.90;;;;;;4994436;28;20196;-64
2023/01/27 08:08:17;;;;;;;19.30;13.93;;;2.80;99.90;;;;;;4994423;28;20230;-64
2023/01/27 08:10:47;;;;;;;20.13;13.73;;;2.80;99.90;;;;;;4994312;28;20196;-64
2023/01/27 08:13:14;;;;;;;19.27;13.57;;;2.80;99.90;;;;;;4994351;28;20571;-65
2023/01/27 08:15:40;;;;;;;18.03;13.87;;;2.80;99.90;;;;;;4994379;28;20207;-65
2023/01/27 08:18:06;;;;;;;19.97;14.20;;;2.80;99.90;;;;;;4994286;28;20535;-65
2023/01/27 08:20:32;;;;;;;25.33;15.57;;;2.90;99.90;;;;;;4993009;28;20560;-65
2023/01/27 08:22:57;;;;;;;20.63;14.30;;;2.90;99.90;;;;;;4994523;28;20718;-65
2023/01/27 08:25:24;;;;;;;18.20;13.90;;;2.90;99.90;;;;;;4994116;28;20199;-65
2023/01/27 08:27:51;;;;;;;19.47;14.00;;;2.90;99.90;;;;;;5009254;28;20184;-65
2023/01/27 08:30:18;;;;;;;19.97;14.50;;;2.90;99.90;;;;;;4992962;28;20615;-65
2023/01/27 08:32:44;;;;;;;18.00;13.60;;;2.90;99.90;;;;;;5009298;28;20180;-65
2023/01/27 08:35:09;;;;;;;19.13;13.90;;;2.90;99.90;;;;;;4994963;28;20680;-65
2023/01/27 08:37:35;;;;;;;17.87;14.27;;;2.90;99.90;;;;;;4993885;28;20169;-65
2023/01/27 08:40:01;;;;;;;20.10;14.80;;;2.90;99.90;;;;;;4994621;28;20172;-65
2023/01/27 08:42:27;;;;;;;17.33;13.10;;;3.00;99.90;;;;;;4993900;28;20653;-65
2023/01/27 08:44:53;;;;;;;18.67;13.53;;;3.00;99.90;;;;;;4993943;28;20188;-65
2023/01/27 08:47:19;;;;;;;18.83;13.67;;;2.90;99.90;;;;;;5008893;28;20192;-65
2023/01/27 08:49:45;;;;;;;18.10;13.23;;;3.00;99.90;;;;;;4994248;28;20658;-65
2023/01/27 08:52:10;;;;;;;21.30;14.13;;;3.00;99.90;;;;;;4993985;28;20196;-65
2023/01/27 08:54:36;;;;;;;19.97;14.70;;;3.00;99.90;;;;;;4993635;28;20176;-65
2023/01/27 08:57:02;;;;;;;17.50;13.57;;;3.10;99.90;;;;;;4997979;28;20184;-65
2023/01/27 08:59:27;;;;;;;15.43;12.63;;;3.10;99.90;;;;;;5013134;28;20180;-65
2023/01/27 09:01:53;;;;;;;16.03;13.03;;;3.10;99.90;;;;;;4997933;28;20222;-65
2023/01/27 09:04:21;;;;;;;16.57;12.93;;;3.10;99.90;;;;;;4997852;28;20207;-65
2023/01/27 09:06:48;;;;;;;18.43;13.57;;;3.10;99.90;;;;;;4997722;28;20193;-65
2023/01/27 09:09:14;;;;;;;17.67;13.17;;;3.10;99.90;;;;;;4997745;28;20637;-65
2023/01/27 09:11:42;;;;;;;18.93;13.73;;;3.20;99.90;;;;;;4997657;28;20193;-65
2023/01/27 09:14:09;;;;;;;19.40;13.30;;;3.20;99.90;;;;;;4997719;28;20255;-65
2023/01/27 09:16:35;;;;;;;20.13;13.63;;;3.20;99.90;;;;;;4997509;28;20204;-65
2023/01/27 09:19:01;;;;;;;17.60;13.37;;;3.20;99.90;;;;;;4997583;28;20561;-65
2023/01/27 09:21:26;;;;;;;17.57;12.13;;;3.20;99.90;;;;;;4997515;28;20176;-65
2023/01/27 09:23:52;;;;;;;15.87;11.40;;;3.20;99.90;;;;;;4997418;28;20657;-65
2023/01/27 09:26:18;;;;;;;17.47;12.97;;;3.20;99.90;;;;;;4997621;28;20196;-64
2023/01/27 09:28:44;;;;;;;17.37;12.20;;;3.20;99.90;;;;;;4997423;28;20176;-64
2023/01/27 09:31:10;;;;;;;16.43;12.80;;;3.20;99.90;;;;;;4997808;28;20581;-64
2023/01/27 09:33:35;;;;;;;14.37;11.90;;;3.20;99.90;;;;;;4997308;28;20172;-65
2023/01/27 09:36:10;;;;;;;16.80;12.00;;;3.20;99.90;;;;;;4997180;28;20203;-64
2023/01/27 09:38:43;;;;;;;14.00;12.23;;;3.20;99.90;;;;;;4997275;28;20159;-65
2023/01/27 09:41:20;;;;;;;14.90;11.43;;;3.20;99.90;;;;;;5012201;28;20255;-64
2023/01/27 09:44:04;;;;;;;17.17;11.23;;;3.20;99.90;;;;;;4997142;28;20161;-64
2023/01/27 09:46:41;;;;;;;17.43;11.93;;;3.20;99.90;;;;;;4997143;28;20208;-65
2023/01/27 09:49:28;;;;;;;15.43;11.57;;;3.20;99.90;;;;;;4995751;28;20223;-65
2023/01/27 09:52:22;;;;;;;16.23;11.80;;;3.20;99.90;;;;;;4995701;28;20192;-64
2023/01/27 09:55:06;;;;;;;17.37;12.33;;;3.20;99.90;;;;;;4996836;28;20164;-65
2023/01/27 09:58:07;;;;;;;15.20;11.83;;;3.30;99.90;;;;;;4995576;28;20645;-65
2023/01/27 10:00:42;;;;;;;18.37;12.87;;;3.30;99.90;;;;;;4992971;28;20232;-65
2023/01/27 10:03:49;;;;;;;15.43;11.77;;;3.30;99.90;;;;;;4995493;28;20184;-65
2023/01/27 10:06:37;;;;;;;16.20;11.57;;;3.30;99.90;;;;;;4917586;29;20250;-64
2023/01/27 10:09:05;;;;;;;16.40;12.10;;;3.40;99.90;;;;;;4991882;28;20198;-65
2023/01/27 10:12:01;;;;;;;16.93;12.07;;;3.30;99.90;;;;;;4996747;28;20207;-65
2023/01/27 10:14:56;;;;;;;15.30;11.07;;;3.40;99.90;;;;;;4996915;28;20158;-65
2023/01/27 10:17:48;;;;;;;20.13;13.37;;;3.40;99.90;;;;;;4987725;28;20193;-65
2023/01/27 10:20:33;;;;;;;17.77;12.30;;;3.40;99.90;;;;;;4987506;28;20211;-65
2023/01/27 10:23:20;;;;;;;16.13;12.83;;;3.40;99.90;;;;;;4995029;28;20187;-64
2023/01/27 10:26:11;;;;;;;16.20;12.47;;;3.40;99.90;;;;;;4996557;28;20196;-65
2023/01/27 10:28:38;;;;;;;17.90;12.43;;;3.40;99.90;;;;;;4996872;28;20236;-65
2023/01/27 10:31:42;;;;;;;23.83;15.17;;;3.40;99.90;;;;;;4996427;28;20661;-65
2023/01/27 10:34:35;;;;;;;29.63;19.60;;;3.50;99.90;;;;;;4996702;28;20169;-65
2023/01/27 10:37:13;;;;;;;16.47;12.47;;;3.50;99.90;;;;;;4996433;28;20169;-65
2023/01/27 10:39:54;;;;;;;17.97;13.83;;;3.50;99.90;;;;;;5011082;28;20168;-65
2023/01/27 10:42:43;;;;;;;17.17;13.03;;;3.50;99.90;;;;;;4996333;28;20247;-65
2023/01/27 10:45:38;;;;;;;19.87;15.87;;;3.50;99.90;;;;;;4996040;28;20212;-64
2023/01/27 10:48:23;;;;;;;19.80;14.93;;;3.60;99.90;;;;;;4993052;28;20279;-65
2023/01/27 10:50:57;;;;;;;22.00;15.27;;;3.60;99.90;;;;;;4995910;28;20207;-65
2023/01/27 10:53:44;;;;;;;17.20;13.57;;;3.60;99.90;;;;;;4994500;28;20206;-65
2023/01/27 10:56:23;;;;;;;19.67;14.03;;;3.60;99.90;;;;;;4995804;28;20280;-65
2023/01/27 10:58:57;;;;;;;18.30;15.17;;;3.60;99.90;;;;;;4996061;28;20564;-65
2023/01/27 11:01:29;;;;;;;16.90;13.63;;;3.60;99.90;;;;;;4994505;28;20175;-65
2023/01/27 11:04:19;;;;;;;19.00;13.60;;;3.60;99.90;;;;;;5010760;28;20572;-65
2023/01/27 11:06:47;;;;;;;18.90;13.77;;;3.60;99.90;;;;;;4994890;28;20212;-64
2023/01/27 11:09:36;;;;;;;18.97;11.77;;;3.60;99.90;;;;;;4995521;28;20173;-64
2023/01/27 11:12:09;;;;;;;16.60;14.07;;;3.60;99.90;;;;;;4994225;28;20230;-64
2023/01/27 11:14:37;;;;;;;14.13;12.37;;;3.60;99.90;;;;;;5010555;28;20542;-64
2023/01/27 11:17:09;;;;;;;17.77;12.07;;;3.60;99.90;;;;;;4995367;28;20177;-65
2023/01/27 11:19:47;;;;;;;15.13;11.57;;;3.60;99.90;;;;;;4993135;28;20171;-65
2023/01/27 11:22:59;;;;;;;15.77;12.67;;;3.60;99.90;;;;;;4994009;28;20596;-64
2023/01/27 11:25:31;;;;;;;19.00;12.67;;;3.70;99.90;;;;;;4946963;28;20292;-64
2023/01/27 11:28:09;;;;;;;17.97;13.43;;;3.70;99.90;;;;;;4995472;28;20165;-64
2023/01/27 11:30:51;;;;;;;15.57;12.80;;;3.70;99.90;;;;;;4995057;28;20572;-64
2023/01/27 11:33:24;;;;;;;14.57;11.97;;;3.80;99.90;;;;;;4995443;28;20158;-65
2023/01/27 11:35:52;;;;;;;16.87;13.03;;;3.80;99.90;;;;;;4995177;28;20276;-65
2023/01/27 11:38:20;;;;;;;15.17;11.93;;;3.90;99.90;;;;;;4995139;28;20581;-65
2023/01/27 11:40:50;;;;;;;15.87;12.77;;;3.90;99.90;;;;;;4995247;28;20263;-65
2023/01/27 11:43:18;;;;;;;15.50;12.53;;;3.90;99.90;;;;;;4995246;28;20173;-65
2023/01/27 11:45:45;;;;;;;16.10;13.20;;;3.90;99.90;;;;;;4994618;28;20273;-65
2023/01/27 11:48:15;;;;;;;14.53;12.37;;;3.90;99.90;;;;;;4994861;28;20180;-65
2023/01/27 11:50:42;;;;;;;14.83;13.00;;;3.90;99.90;;;;;;4995119;28;20196;-64
2023/01/27 11:53:35;;;;;;;15.80;12.03;;;3.90;99.90;;;;;;4994865;28;20238;-65
2023/01/27 11:56:09;;;;;;;14.27;11.73;;;3.80;99.90;;;;;;4993633;28;20593;-65
2023/01/27 11:58:42;;;;;;;14.90;12.00;;;3.80;99.90;;;;;;4994694;28;20199;-65
2023/01/27 12:01:20;;;;;;;15.03;12.53;;;3.80;99.90;;;;;;4995092;28;20161;-65
2023/01/27 12:03:56;;;;;;;12.73;11.17;;;3.80;99.90;;;;;;4994553;28;20203;-65
2023/01/27 12:06:37;;;;;;;14.27;11.53;;;3.90;99.90;;;;;;4993312;28;20273;-65
2023/01/27 12:09:02;;;;;;;15.13;11.37;;;3.90;99.90;;;;;;4993196;28;20203;-65
2023/01/27 12:11:30;;;;;;;12.23;10.93;;;3.90;99.90;;;;;;4994909;28;20683;-65
2023/01/27 12:13:57;;;;;;;13.63;11.60;;;3.90;99.90;;;;;;4994343;28;20172;-65
2023/01/27 12:16:42;;;;;;;12.13;10.47;;;3.90;99.90;;;;;;4994149;28;20685;-65
2023/01/27 12:19:33;;;;;;;13.33;11.23;;;3.90;99.90;;;;;;4994862;28;20244;-65
2023/01/27 12:22:05;;;;;;;11.00;9.90;;;3.90;99.90;;;;;;4992966;28;20165;-65
2023/01/27 12:24:39;;;;;;;11.10;10.00;;;3.90;99.90;;;;;;4994209;28;20152;-65
2023/01/27 12:27:06;;;;;;;10.10;9.07;;;3.80;99.90;;;;;;4994259;28;20161;-65
2023/01/27 12:29:40;;;;;;;10.87;9.77;;;3.80;99.90;;;;;;4994241;28;20177;-65
2023/01/27 12:32:16;;;;;;;9.57;8.60;;;3.90;99.90;;;;;;4994419;28;20160;-65
2023/01/27 12:34:46;;;;;;;10.27;9.27;;;3.90;99.90;;;;;;4994403;28;20165;-64
2023/01/27 12:37:31;;;;;;;9.43;8.40;;;4.00;99.90;;;;;;4994103;28;20173;-65
2023/01/27 12:40:06;;;;;;;9.30;8.30;;;4.00;99.90;;;;;;5009096;28;20173;-65
2023/01/27 12:42:39;;;;;;;14.70;12.90;;;4.10;99.90;;;;;;4994635;28;20172;-65
2023/01/27 12:45:28;;;;;;;10.73;9.63;;;4.10;99.90;;;;;;4994118;28;20575;-65
2023/01/27 12:48:16;;;;;;;9.73;8.83;;;4.00;99.90;;;;;;4994056;28;20173;-65
2023/01/27 12:50:53;;;;;;;8.97;8.10;;;4.00;99.90;;;;;;4993864;28;20302;-65
2023/01/27 12:53:22;;;;;;;9.77;8.87;;;4.00;99.90;;;;;;5008939;28;20176;-65
2023/01/27 12:56:03;;;;;;;9.00;8.10;;;4.00;99.90;;;;;;5008975;28;20216;-65
2023/01/27 12:58:45;;;;;;;9.90;8.67;;;3.90;99.90;;;;;;4993990;28;20210;-65
2023/01/27 13:01:37;;;;;;;8.97;8.13;;;3.90;99.90;;;;;;4994424;28;20175;-64
2023/01/27 13:04:16;;;;;;;9.73;8.07;;;3.80;99.90;;;;;;5009334;28;20581;-64
2023/01/27 13:06:54;;;;;;;8.23;7.53;;;3.70;99.90;;;;;;4994174;28;20200;-64
2023/01/27 13:09:28;;;;;;;9.20;8.30;;;3.70;99.90;;;;;;4994272;28;20219;-66
2023/01/27 13:11:58;;;;;;;8.47;7.77;;;3.60;99.90;;;;;;4994010;28;20676;-66
2023/01/27 13:14:27;;;;;;;9.73;8.77;;;3.60;99.90;;;;;;4994056;28;20179;-66
2023/01/27 13:16:57;;;;;;;9.17;8.30;;;3.70;99.90;;;;;;5008666;28;20633;-66
2023/01/27 13:19:45;;;;;;;9.70;8.80;;;3.60;99.90;;;;;;4993880;28;20179;-66
2023/01/27 13:22:17;;;;;;;9.23;8.53;;;3.60;99.90;;;;;;4994135;28;20216;-66
2023/01/27 13:24:46;;;;;;;9.60;8.70;;;3.60;99.90;;;;;;4993572;28;20165;-66